Charleston, SC

4:29 PM EDT on October 21, 2017 (GMT -0400)
Charleston Executive

Weather History for KJZI - May, 2014

Change the Weather History Date:

Thursday, May 15, 2014

  Actual Average (KCHS) Record (KCHS)
Temperature  
Mean Temperature 74 °F -  
Max Temperature 78 °F 83 °F 97 °F (1995)
Min Temperature 71 °F 63 °F 47 °F (1941)
Cooling Degree Days 10    
Growing Degree Days 24 (Base 50)    
Moisture  
Dew Point 72 °F    
Average Humidity 89    
Maximum Humidity 94    
Minimum Humidity 78    
Precipitation  
Precipitation 0.00 in - - ()
Sea Level Pressure  
Sea Level Pressure 29.97 in    
Wind  
Wind Speed 11 mph (SSE)    
Max Wind Speed 26 mph    
Max Gust Speed 37 mph    
Visibility 6 miles    
Events Rain    
Averages and records for this station are not official NWS values.
T = Trace of Precipitation, MM = Missing Value Source: NWS Daily Summary

Daily Weather History Graph

Daily Weather History Graph

Search for Another Location

Airport or City:

Trip Planner

Search our weather history database for the weather conditions in past years. The results will help you decide how hot, cold, wet, or windy it might be!

Date:

Astronomy

May. 15, 2014 Rise Set
Actual Time 6:21 AM EDT 8:11 PM EDT
Civil Twilight 5:54 AM EDT 8:39 PM EDT
Nautical Twilight 5:21 AM EDT 9:11 PM EDT
Astronomical Twilight 4:46 AM EDT 9:46 PM EDT
Moon 9:18 PM EDT (5/15) 7:05 AM EDT (5/15)
Length of Visible Light 14h 44m
Length of Day
13h 50m
Full, 99% of the Moon is Illuminated
May 15
Full
May 21
Last Quarter
May 28
New
Jun 5
First Quarter
Jun 13
Full

Hourly Weather History & Observations

Time (EDT) Temp. Dew Point Humidity Pressure Visibility Wind Dir Wind Speed Gust Speed Precip Events Conditions
12:15 AM 77.0 °F 71.6 °F 83% 30.08 in 10.0 mi SE 10.4 mph - 0.00 in   Clear
12:35 AM 77.0 °F 71.6 °F 83% 30.08 in 9.0 mi SSE 9.2 mph 16.1 mph 0.00 in   Clear
12:55 AM 77.0 °F 71.6 °F 83% 30.08 in 9.0 mi SE 11.5 mph 16.1 mph 0.00 in   Clear
1:15 AM 77.0 °F 71.6 °F 83% 30.08 in 9.0 mi SSE 9.2 mph - 0.00 in   Clear
1:35 AM 77.0 °F 71.6 °F 83% 30.08 in 9.0 mi SSE 6.9 mph - 0.00 in   Clear
1:55 AM 75.2 °F 71.6 °F 89% 30.07 in 9.0 mi SSE 8.1 mph - 0.00 in   Clear
2:15 AM 75.2 °F 71.6 °F 89% 30.06 in 9.0 mi SSE 6.9 mph - 0.00 in   Clear
2:35 AM 75.2 °F 71.6 °F 89% 30.05 in 8.0 mi SE 9.2 mph - 0.00 in   Clear
2:55 AM 75.2 °F 71.6 °F 89% 30.04 in 8.0 mi SSE 6.9 mph - 0.00 in   Partly Cloudy
3:15 AM 75.2 °F 71.6 °F 89% 30.03 in 7.0 mi SSE 9.2 mph - 0.00 in   Scattered Clouds
3:35 AM 77.0 °F 73.4 °F 89% 30.03 in 7.0 mi SE 8.1 mph - 0.00 in   Mostly Cloudy
4:15 AM 75.2 °F 73.4 °F 94% 30.02 in 7.0 mi SE 10.4 mph - 0.00 in   Overcast
4:35 AM 77.0 °F 73.4 °F 89% 30.02 in 7.0 mi SSE 9.2 mph - 0.00 in   Mostly Cloudy
4:55 AM 77.0 °F 73.4 °F 89% 30.01 in 6.0 mi SE 8.1 mph - 0.00 in   Mostly Cloudy
5:35 AM 77.0 °F 73.4 °F 89% 30.01 in 7.0 mi SSE 9.2 mph 17.3 mph 0.00 in   Scattered Clouds
5:55 AM 77.0 °F 73.4 °F 89% 30.00 in 7.0 mi SSE 8.1 mph 16.1 mph 0.00 in   Scattered Clouds
6:15 AM 77.0 °F 73.4 °F 89% 30.00 in 7.0 mi SSE 8.1 mph - 0.00 in   Clear
6:35 AM 77.0 °F 73.4 °F 89% 30.00 in 6.0 mi SE 8.1 mph - 0.00 in   Clear
6:55 AM 77.0 °F 73.4 °F 89% 30.00 in 5.0 mi SE 9.2 mph - 0.00 in   Clear
7:15 AM 77.0 °F 73.4 °F 89% 30.01 in 5.0 mi SSE 9.2 mph - 0.00 in   Scattered Clouds
7:35 AM 77.0 °F 73.4 °F 89% 30.01 in 5.0 mi SSE 8.1 mph - 0.00 in   Partly Cloudy
7:55 AM 77.0 °F 73.4 °F 89% 30.01 in 5.0 mi SSE 6.9 mph - 0.00 in   Scattered Clouds
8:15 AM 78.8 °F 73.4 °F 83% 30.02 in 4.0 mi SSE 10.4 mph - 0.00 in   Mostly Cloudy
8:35 AM 78.8 °F 73.4 °F 83% 30.01 in 4.0 mi SSE 9.2 mph - 0.00 in   Mostly Cloudy
9:15 AM 75.2 °F 71.6 °F 89% 30.01 in 5.0 mi South 11.5 mph 18.4 mph 0.00 in   Mostly Cloudy
9:35 AM 75.2 °F 71.6 °F 89% 30.00 in 5.0 mi South 13.8 mph - 0.00 in   Mostly Cloudy
9:55 AM 75.2 °F 71.6 °F 89% 30.00 in 7.0 mi South 13.8 mph 19.6 mph 0.00 in   Scattered Clouds
10:15 AM 78.8 °F 71.6 °F 78% 30.02 in 7.0 mi South 13.8 mph - 0.00 in   Scattered Clouds
10:35 AM 75.2 °F 71.6 °F 89% 30.02 in 8.0 mi SSE 10.4 mph 18.4 mph 0.00 in   Mostly Cloudy
10:55 AM 78.8 °F 71.6 °F 78% 30.01 in 6.0 mi SSE 12.7 mph 19.6 mph 0.00 in   Haze
11:15 AM 75.2 °F 71.6 °F 89% 30.01 in 5.0 mi South 21.9 mph - 0.00 in   Overcast
11:35 AM 77.0 °F 69.8 °F 78% 30.01 in 7.0 mi South 12.7 mph - 0.00 in   Scattered Clouds
11:55 AM 75.2 °F 71.6 °F 89% 30.00 in 3.0 mi South 10.4 mph - 0.00 in   Mostly Cloudy
12:15 PM 77.0 °F 71.6 °F 83% 29.99 in 7.0 mi South 17.3 mph 20.7 mph 0.00 in   Mostly Cloudy
12:35 PM 78.8 °F 71.6 °F 78% 29.99 in 9.0 mi South 19.6 mph 25.3 mph 0.00 in   Scattered Clouds
12:55 PM 77.0 °F 71.6 °F 83% 29.99 in 8.0 mi South 18.4 mph 28.8 mph 0.00 in   Mostly Cloudy
1:15 PM 75.2 °F 71.6 °F 89% 29.99 in 2.5 mi SSE 26.5 mph 36.8 mph 0.00 in Rain Light Rain
1:35 PM 71.6 °F 69.8 °F 94% 29.98 in 2.0 mi SE 11.5 mph 25.3 mph 0.00 in   Overcast
1:55 PM 71.6 °F 69.8 °F 94% 29.99 in 2.0 mi South 12.7 mph 19.6 mph 0.00 in Rain Light Rain
2:15 PM 71.6 °F 69.8 °F 94% 29.97 in 0.8 mi SSE 9.2 mph 16.1 mph 0.00 in Rain Rain
2:35 PM 73.4 °F 71.6 °F 94% 29.96 in 1.0 mi SSE 11.5 mph 18.4 mph 0.00 in Rain Rain
3:35 PM 73.4 °F 71.6 °F 94% 29.94 in 0.8 mi SSE 12.7 mph 25.3 mph 0.00 in   Overcast
4:15 PM 75.2 °F 71.6 °F 89% 29.91 in 6.0 mi SSE 17.3 mph 23.0 mph 0.00 in   Mostly Cloudy
4:35 PM 75.2 °F 71.6 °F 89% 29.90 in 5.0 mi SSE 16.1 mph 24.2 mph 0.00 in   Mostly Cloudy
5:15 PM 75.2 °F 71.6 °F 89% 29.88 in 5.0 mi SSE 12.7 mph 23.0 mph 0.00 in   Scattered Clouds
5:35 PM 75.2 °F 71.6 °F 89% 29.88 in 4.0 mi SSE 12.7 mph 19.6 mph 0.00 in   Mostly Cloudy
5:55 PM 75.2 °F 73.4 °F 94% 29.88 in 4.0 mi South 21.9 mph 25.3 mph 0.00 in Rain Light Rain
6:15 PM 75.2 °F 71.6 °F 89% 29.87 in 1.8 mi SSE 16.1 mph 26.5 mph 0.00 in Rain Light Rain
6:35 PM 75.2 °F 73.4 °F 94% 29.87 in 3.0 mi South 17.3 mph 24.2 mph 0.00 in   Overcast
6:55 PM 75.2 °F 73.4 °F 94% 29.88 in 0.8 mi South 15.0 mph 19.6 mph 0.00 in   Overcast
7:15 PM 75.2 °F 73.4 °F 94% 29.88 in 0.5 mi South 20.7 mph 28.8 mph 0.00 in Rain Light Rain
7:35 PM 75.2 °F 73.4 °F 94% 29.88 in 5.0 mi South 16.1 mph 26.5 mph 0.00 in   Overcast
7:55 PM 75.2 °F 71.6 °F 89% 29.89 in 5.0 mi South 17.3 mph 25.3 mph 0.00 in   Mostly Cloudy
8:15 PM 75.2 °F 71.6 °F 89% 29.88 in 5.0 mi South 17.3 mph 23.0 mph 0.00 in   Mostly Cloudy
8:35 PM 75.2 °F 71.6 °F 89% 29.88 in 6.0 mi South 13.8 mph 21.9 mph 0.00 in   Mostly Cloudy
8:55 PM 75.2 °F 73.4 °F 94% 29.88 in 6.0 mi South 11.5 mph 17.3 mph 0.00 in   Mostly Cloudy
9:15 PM 75.2 °F 73.4 °F 94% 29.89 in 6.0 mi SSW 12.7 mph 17.3 mph 0.00 in   Overcast
9:35 PM 75.2 °F 71.6 °F 89% 29.90 in 10.0 mi South 12.7 mph 19.6 mph 0.00 in   Overcast
10:15 PM 73.4 °F 71.6 °F 94% 29.91 in 3.0 mi SSW 16.1 mph 25.3 mph 0.00 in   Overcast
10:35 PM 71.6 °F 69.8 °F 94% 29.91 in 0.8 mi South 9.2 mph 25.3 mph 0.00 in Rain Heavy Rain
10:55 PM 73.4 °F 69.8 °F 88% 29.89 in 1.0 mi SSW 11.5 mph 17.3 mph 0.00 in Rain Heavy Rain
11:15 PM 73.4 °F 71.6 °F 94% 29.89 in 5.0 mi Calm Calm - 0.00 in   Mostly Cloudy
11:35 PM 73.4 °F 71.6 °F 94% 29.89 in 7.0 mi West 4.6 mph - 0.00 in   Scattered Clouds
11:55 PM 71.6 °F 69.8 °F 94% 29.90 in 10.0 mi WNW 8.1 mph - 0.00 in   Overcast